sensor_id;sensor_type;location;lat;lon;timestamp;P1;durP1;ratioP1;P2;durP2;ratioP2
54143;SDS011;40050;47.324;18.792;2022-11-03T00:00:46;24.34;;;14.49;;
54143;SDS011;40050;47.324;18.792;2022-11-03T00:02:47;24.81;;;14.98;;
54143;SDS011;40050;47.324;18.792;2022-11-03T00:04:50;20.48;;;14.31;;
54143;SDS011;40050;47.324;18.792;2022-11-03T00:06:51;23.65;;;14.32;;
54143;SDS011;40050;47.324;18.792;2022-11-03T00:08:51;23.77;;;14.33;;
54143;SDS011;40050;47.324;18.792;2022-11-03T00:10:52;23.06;;;14.43;;
54143;SDS011;40050;47.324;18.792;2022-11-03T00:12:53;23.00;;;14.14;;
54143;SDS011;40050;47.324;18.792;2022-11-03T00:14:53;23.40;;;14.35;;
54143;SDS011;40050;47.324;18.792;2022-11-03T00:16:54;21.84;;;13.97;;
54143;SDS011;40050;47.324;18.792;2022-11-03T00:18:55;23.60;;;13.87;;
54143;SDS011;40050;47.324;18.792;2022-11-03T00:20:56;21.43;;;12.34;;
54143;SDS011;40050;47.324;18.792;2022-11-03T00:22:57;24.23;;;13.11;;
54143;SDS011;40050;47.324;18.792;2022-11-03T00:24:57;18.97;;;12.72;;
54143;SDS011;40050;47.324;18.792;2022-11-03T00:26:59;20.21;;;12.15;;
54143;SDS011;40050;47.324;18.792;2022-11-03T00:29:11;21.47;;;12.15;;
54143;SDS011;40050;47.324;18.792;2022-11-03T00:31:05;22.45;;;12.45;;
54143;SDS011;40050;47.324;18.792;2022-11-03T00:33:05;18.61;;;11.58;;
54143;SDS011;40050;47.324;18.792;2022-11-03T00:35:06;19.34;;;11.78;;
54143;SDS011;40050;47.324;18.792;2022-11-03T00:37:10;18.95;;;12.18;;
54143;SDS011;40050;47.324;18.792;2022-11-03T00:39:12;22.13;;;12.96;;
54143;SDS011;40050;47.324;18.792;2022-11-03T00:41:13;21.08;;;12.38;;
54143;SDS011;40050;47.324;18.792;2022-11-03T00:43:13;19.57;;;12.76;;
54143;SDS011;40050;47.324;18.792;2022-11-03T00:45:14;21.40;;;12.57;;
54143;SDS011;40050;47.324;18.792;2022-11-03T00:47:15;22.12;;;13.15;;
54143;SDS011;40050;47.324;18.792;2022-11-03T00:49:16;21.22;;;13.24;;
54143;SDS011;40050;47.324;18.792;2022-11-03T00:51:23;25.41;;;14.01;;
54143;SDS011;40050;47.324;18.792;2022-11-03T00:53:17;23.90;;;14.00;;
54143;SDS011;40050;47.324;18.792;2022-11-03T00:55:18;21.55;;;12.95;;
54143;SDS011;40050;47.324;18.792;2022-11-03T00:57:19;19.55;;;12.76;;
54143;SDS011;40050;47.324;18.792;2022-11-03T00:59:20;23.45;;;13.44;;
54143;SDS011;40050;47.324;18.792;2022-11-03T01:01:32;19.67;;;12.48;;
54143;SDS011;40050;47.324;18.792;2022-11-03T01:03:30;18.09;;;12.67;;
54143;SDS011;40050;47.324;18.792;2022-11-03T01:05:29;24.28;;;13.06;;
54143;SDS011;40050;47.324;18.792;2022-11-03T01:07:30;24.58;;;12.58;;
54143;SDS011;40050;47.324;18.792;2022-11-03T01:09:35;22.48;;;12.88;;
54143;SDS011;40050;47.324;18.792;2022-11-03T01:11:39;22.31;;;12.88;;
54143;SDS011;40050;47.324;18.792;2022-11-03T01:13:40;20.29;;;12.50;;
54143;SDS011;40050;47.324;18.792;2022-11-03T01:15:41;21.50;;;12.22;;
54143;SDS011;40050;47.324;18.792;2022-11-03T01:17:46;21.43;;;12.81;;
54143;SDS011;40050;47.324;18.792;2022-11-03T01:19:47;18.51;;;12.13;;
54143;SDS011;40050;47.324;18.792;2022-11-03T01:21:48;21.33;;;12.42;;
54143;SDS011;40050;47.324;18.792;2022-11-03T01:23:49;19.35;;;12.51;;
54143;SDS011;40050;47.324;18.792;2022-11-03T01:25:50;20.30;;;12.89;;
54143;SDS011;40050;47.324;18.792;2022-11-03T01:27:51;21.79;;;13.08;;
54143;SDS011;40050;47.324;18.792;2022-11-03T01:29:52;18.50;;;12.50;;
54143;SDS011;40050;47.324;18.792;2022-11-03T01:31:54;19.55;;;12.30;;
54143;SDS011;40050;47.324;18.792;2022-11-03T01:33:54;21.65;;;12.49;;
54143;SDS011;40050;47.324;18.792;2022-11-03T01:35:55;19.43;;;12.68;;
54143;SDS011;40050;47.324;18.792;2022-11-03T01:37:56;20.38;;;12.86;;
54143;SDS011;40050;47.324;18.792;2022-11-03T01:39:57;20.32;;;13.33;;
54143;SDS011;40050;47.324;18.792;2022-11-03T01:41:58;23.89;;;13.81;;
54143;SDS011;40050;47.324;18.792;2022-11-03T01:46:07;19.80;;;12.92;;
54143;SDS011;40050;47.324;18.792;2022-11-03T01:48:03;21.85;;;13.99;;
54143;SDS011;40050;47.324;18.792;2022-11-03T01:50:11;21.62;;;13.42;;
54143;SDS011;40050;47.324;18.792;2022-11-03T01:52:19;22.53;;;13.53;;
54143;SDS011;40050;47.324;18.792;2022-11-03T01:54:18;21.07;;;12.47;;
54143;SDS011;40050;47.324;18.792;2022-11-03T01:56:19;22.52;;;12.77;;
54143;SDS011;40050;47.324;18.792;2022-11-03T01:58:30;22.43;;;13.45;;
54143;SDS011;40050;47.324;18.792;2022-11-03T02:00:31;23.14;;;12.68;;
54143;SDS011;40050;47.324;18.792;2022-11-03T02:02:32;22.16;;;13.45;;
54143;SDS011;40050;47.324;18.792;2022-11-03T02:04:37;22.34;;;13.64;;
54143;SDS011;40050;47.324;18.792;2022-11-03T02:06:38;21.99;;;13.55;;
54143;SDS011;40050;47.324;18.792;2022-11-03T02:08:44;20.58;;;12.58;;
54143;SDS011;40050;47.324;18.792;2022-11-03T02:10:45;22.71;;;13.16;;
54143;SDS011;40050;47.324;18.792;2022-11-03T02:12:46;21.05;;;13.07;;
54143;SDS011;40050;47.324;18.792;2022-11-03T02:14:57;23.53;;;12.49;;
54143;SDS011;40050;47.324;18.792;2022-11-03T02:16:50;20.90;;;12.98;;
54143;SDS011;40050;47.324;18.792;2022-11-03T02:18:52;23.60;;;13.28;;
54143;SDS011;40050;47.324;18.792;2022-11-03T02:21:03;19.43;;;12.70;;
54143;SDS011;40050;47.324;18.792;2022-11-03T02:23:22;22.01;;;12.99;;
54143;SDS011;40050;47.324;18.792;2022-11-03T02:25:39;20.95;;;13.09;;
54143;SDS011;40050;47.324;18.792;2022-11-03T02:27:30;21.30;;;13.77;;
54143;SDS011;40050;47.324;18.792;2022-11-03T02:29:31;19.71;;;12.41;;
54143;SDS011;40050;47.324;18.792;2022-11-03T02:31:48;21.25;;;12.91;;
54143;SDS011;40050;47.324;18.792;2022-11-03T02:34:11;22.32;;;12.81;;
54143;SDS011;40050;47.324;18.792;2022-11-03T02:36:35;21.05;;;12.51;;
54143;SDS011;40050;47.324;18.792;2022-11-03T02:38:29;22.56;;;13.00;;
54143;SDS011;40050;47.324;18.792;2022-11-03T02:40:34;23.63;;;12.51;;
54143;SDS011;40050;47.324;18.792;2022-11-03T02:42:34;21.52;;;12.91;;
54143;SDS011;40050;47.324;18.792;2022-11-03T02:44:37;22.22;;;12.81;;
54143;SDS011;40050;47.324;18.792;2022-11-03T02:46:39;21.16;;;13.10;;
54143;SDS011;40050;47.324;18.792;2022-11-03T02:48:41;19.47;;;13.00;;
54143;SDS011;40050;47.324;18.792;2022-11-03T02:50:42;24.61;;;13.41;;
54143;SDS011;40050;47.324;18.792;2022-11-03T02:53:04;23.39;;;13.02;;
54143;SDS011;40050;47.324;18.792;2022-11-03T02:57:20;20.78;;;13.29;;
54143;SDS011;40050;47.324;18.792;2022-11-03T02:59:26;21.49;;;12.34;;
54143;SDS011;40050;47.324;18.792;2022-11-03T03:01:36;20.70;;;12.15;;
54143;SDS011;40050;47.324;18.792;2022-11-03T03:03:37;23.26;;;13.89;;
54143;SDS011;40050;47.324;18.792;2022-11-03T03:05:39;24.09;;;13.31;;
54143;SDS011;40050;47.324;18.792;2022-11-03T03:07:45;24.29;;;13.68;;
54143;SDS011;40050;47.324;18.792;2022-11-03T03:10:00;21.39;;;12.80;;
54143;SDS011;40050;47.324;18.792;2022-11-03T03:11:52;21.35;;;12.98;;
54143;SDS011;40050;47.324;18.792;2022-11-03T03:13:53;21.17;;;13.37;;
54143;SDS011;40050;47.324;18.792;2022-11-03T03:16:16;23.18;;;13.27;;
54143;SDS011;40050;47.324;18.792;2022-11-03T03:18:26;24.13;;;12.87;;
54143;SDS011;40050;47.324;18.792;2022-11-03T03:20:33;20.80;;;13.17;;
54143;SDS011;40050;47.324;18.792;2022-11-03T03:22:35;20.62;;;12.20;;
54143;SDS011;40050;47.324;18.792;2022-11-03T03:24:50;20.26;;;12.01;;
54143;SDS011;40050;47.324;18.792;2022-11-03T03:26:56;19.01;;;12.39;;
54143;SDS011;40050;47.324;18.792;2022-11-03T03:29:05;21.41;;;12.59;;
54143;SDS011;40050;47.324;18.792;2022-11-03T03:31:07;23.00;;;12.78;;
54143;SDS011;40050;47.324;18.792;2022-11-03T03:33:08;19.90;;;12.88;;
54143;SDS011;40050;47.324;18.792;2022-11-03T03:35:13;19.53;;;11.91;;
54143;SDS011;40050;47.324;18.792;2022-11-03T03:37:13;21.13;;;11.91;;
54143;SDS011;40050;47.324;18.792;2022-11-03T03:39:17;20.06;;;12.29;;
54143;SDS011;40050;47.324;18.792;2022-11-03T03:41:20;24.03;;;13.26;;
54143;SDS011;40050;47.324;18.792;2022-11-03T03:43:22;19.70;;;12.49;;
54143;SDS011;40050;47.324;18.792;2022-11-03T03:45:23;24.49;;;13.46;;
54143;SDS011;40050;47.324;18.792;2022-11-03T03:47:41;21.74;;;12.68;;
54143;SDS011;40050;47.324;18.792;2022-11-03T03:49:43;20.78;;;12.59;;
54143;SDS011;40050;47.324;18.792;2022-11-03T03:51:45;20.19;;;12.30;;
54143;SDS011;40050;47.324;18.792;2022-11-03T03:53:48;22.61;;;12.79;;
54143;SDS011;40050;47.324;18.792;2022-11-03T03:55:50;19.59;;;12.52;;
54143;SDS011;40050;47.324;18.792;2022-11-03T03:57:53;21.46;;;12.82;;
54143;SDS011;40050;47.324;18.792;2022-11-03T03:59:54;21.10;;;12.23;;
54143;SDS011;40050;47.324;18.792;2022-11-03T04:01:54;21.73;;;12.43;;
54143;SDS011;40050;47.324;18.792;2022-11-03T04:03:56;22.01;;;12.53;;
54143;SDS011;40050;47.324;18.792;2022-11-03T04:05:57;21.56;;;13.60;;
54143;SDS011;40050;47.324;18.792;2022-11-03T04:07:57;24.71;;;13.58;;
54143;SDS011;40050;47.324;18.792;2022-11-03T04:09:58;19.72;;;12.12;;
54143;SDS011;40050;47.324;18.792;2022-11-03T04:11:59;22.75;;;12.32;;
54143;SDS011;40050;47.324;18.792;2022-11-03T04:14:00;23.29;;;13.10;;
54143;SDS011;40050;47.324;18.792;2022-11-03T04:16:01;20.99;;;12.03;;
54143;SDS011;40050;47.324;18.792;2022-11-03T04:18:02;18.25;;;11.36;;
54143;SDS011;40050;47.324;18.792;2022-11-03T04:20:03;19.45;;;12.73;;
54143;SDS011;40050;47.324;18.792;2022-11-03T04:22:03;18.82;;;11.56;;
54143;SDS011;40050;47.324;18.792;2022-11-03T04:24:04;22.94;;;12.54;;
54143;SDS011;40050;47.324;18.792;2022-11-03T04:26:05;20.53;;;12.44;;
54143;SDS011;40050;47.324;18.792;2022-11-03T04:28:11;23.23;;;12.54;;
54143;SDS011;40050;47.324;18.792;2022-11-03T04:30:14;22.51;;;12.73;;
54143;SDS011;40050;47.324;18.792;2022-11-03T04:32:13;20.00;;;12.63;;
54143;SDS011;40050;47.324;18.792;2022-11-03T04:34:13;21.57;;;12.65;;
54143;SDS011;40050;47.324;18.792;2022-11-03T04:36:19;24.47;;;12.67;;
54143;SDS011;40050;47.324;18.792;2022-11-03T04:38:21;22.20;;;12.67;;
54143;SDS011;40050;47.324;18.792;2022-11-03T04:40:24;23.99;;;12.37;;
54143;SDS011;40050;47.324;18.792;2022-11-03T04:42:22;23.10;;;13.06;;
54143;SDS011;40050;47.324;18.792;2022-11-03T04:44:23;22.07;;;13.34;;
54143;SDS011;40050;47.324;18.792;2022-11-03T04:46:27;23.13;;;13.24;;
54143;SDS011;40050;47.324;18.792;2022-11-03T04:48:25;21.65;;;13.33;;
54143;SDS011;40050;47.324;18.792;2022-11-03T04:50:27;21.63;;;13.22;;
54143;SDS011;40050;47.324;18.792;2022-11-03T04:52:27;24.85;;;13.42;;
54143;SDS011;40050;47.324;18.792;2022-11-03T04:54:30;23.33;;;13.51;;
54143;SDS011;40050;47.324;18.792;2022-11-03T04:56:31;21.78;;;13.60;;
54143;SDS011;40050;47.324;18.792;2022-11-03T04:58:40;24.39;;;13.69;;
54143;SDS011;40050;47.324;18.792;2022-11-03T05:00:51;26.92;;;13.97;;
54143;SDS011;40050;47.324;18.792;2022-11-03T05:02:51;22.02;;;13.29;;
54143;SDS011;40050;47.324;18.792;2022-11-03T05:04:52;24.10;;;12.81;;
54143;SDS011;40050;47.324;18.792;2022-11-03T05:06:56;22.16;;;13.59;;
54143;SDS011;40050;47.324;18.792;2022-11-03T05:08:57;21.28;;;13.11;;
54143;SDS011;40050;47.324;18.792;2022-11-03T05:10:59;22.24;;;13.69;;
54143;SDS011;40050;47.324;18.792;2022-11-03T05:13:00;23.23;;;13.20;;
54143;SDS011;40050;47.324;18.792;2022-11-03T05:15:02;20.65;;;13.10;;
54143;SDS011;40050;47.324;18.792;2022-11-03T05:17:05;21.62;;;13.30;;
54143;SDS011;40050;47.324;18.792;2022-11-03T05:19:11;23.24;;;13.69;;
54143;SDS011;40050;47.324;18.792;2022-11-03T05:21:20;23.33;;;12.82;;
54143;SDS011;40050;47.324;18.792;2022-11-03T05:23:17;22.72;;;13.40;;
54143;SDS011;40050;47.324;18.792;2022-11-03T05:27:28;22.52;;;13.69;;
54143;SDS011;40050;47.324;18.792;2022-11-03T05:29:33;24.04;;;13.98;;
54143;SDS011;40050;47.324;18.792;2022-11-03T05:31:33;23.24;;;13.59;;
54143;SDS011;40050;47.324;18.792;2022-11-03T05:33:42;24.03;;;13.69;;
54143;SDS011;40050;47.324;18.792;2022-11-03T05:35:51;23.04;;;12.71;;
54143;SDS011;40050;47.324;18.792;2022-11-03T05:37:59;22.92;;;13.19;;
54143;SDS011;40050;47.324;18.792;2022-11-03T05:40:14;24.60;;;13.09;;
54143;SDS011;40050;47.324;18.792;2022-11-03T05:44:24;25.45;;;12.89;;
54143;SDS011;40050;47.324;18.792;2022-11-03T05:46:09;20.40;;;12.31;;
54143;SDS011;40050;47.324;18.792;2022-11-03T05:48:29;21.29;;;12.70;;
54143;SDS011;40050;47.324;18.792;2022-11-03T05:52:15;21.56;;;13.38;;
54143;SDS011;40050;47.324;18.792;2022-11-03T05:54:24;21.45;;;13.37;;
54143;SDS011;40050;47.324;18.792;2022-11-03T05:56:15;21.10;;;12.89;;
54143;SDS011;40050;47.324;18.792;2022-11-03T06:00:23;20.67;;;12.21;;
54143;SDS011;40050;47.324;18.792;2022-11-03T06:02:32;21.58;;;12.51;;
54143;SDS011;40050;47.324;18.792;2022-11-03T06:06:24;21.15;;;13.29;;
54143;SDS011;40050;47.324;18.792;2022-11-03T06:08:25;23.28;;;14.26;;
54143;SDS011;40050;47.324;18.792;2022-11-03T06:10:28;21.96;;;13.47;;
54143;SDS011;40050;47.324;18.792;2022-11-03T06:12:27;22.85;;;12.96;;
54143;SDS011;40050;47.324;18.792;2022-11-03T06:14:29;24.71;;;13.43;;
54143;SDS011;40050;47.324;18.792;2022-11-03T06:16:43;23.10;;;14.27;;
54143;SDS011;40050;47.324;18.792;2022-11-03T06:18:49;24.08;;;13.86;;
54143;SDS011;40050;47.324;18.792;2022-11-03T06:20:52;29.01;;;15.39;;
54143;SDS011;40050;47.324;18.792;2022-11-03T06:23:04;29.43;;;14.89;;
54143;SDS011;40050;47.324;18.792;2022-11-03T06:25:12;24.08;;;14.97;;
54143;SDS011;40050;47.324;18.792;2022-11-03T06:27:08;27.08;;;15.44;;
54143;SDS011;40050;47.324;18.792;2022-11-03T06:29:13;23.39;;;14.30;;
54143;SDS011;40050;47.324;18.792;2022-11-03T06:31:24;24.09;;;14.59;;
54143;SDS011;40050;47.324;18.792;2022-11-03T06:33:13;25.43;;;14.70;;
54143;SDS011;40050;47.324;18.792;2022-11-03T06:35:16;26.13;;;14.99;;
54143;SDS011;40050;47.324;18.792;2022-11-03T06:37:30;23.43;;;14.79;;
54143;SDS011;40050;47.324;18.792;2022-11-03T06:39:21;23.29;;;14.30;;
54143;SDS011;40050;47.324;18.792;2022-11-03T06:41:31;25.57;;;13.90;;
54143;SDS011;40050;47.324;18.792;2022-11-03T06:45:24;24.62;;;14.74;;
54143;SDS011;40050;47.324;18.792;2022-11-03T06:47:27;26.96;;;15.89;;
54143;SDS011;40050;47.324;18.792;2022-11-03T06:49:32;24.86;;;14.54;;
54143;SDS011;40050;47.324;18.792;2022-11-03T06:51:33;27.63;;;15.00;;
54143;SDS011;40050;47.324;18.792;2022-11-03T06:53:33;24.64;;;14.79;;
54143;SDS011;40050;47.324;18.792;2022-11-03T06:55:55;25.04;;;15.26;;
54143;SDS011;40050;47.324;18.792;2022-11-03T06:59:56;25.55;;;15.24;;
54143;SDS011;40050;47.324;18.792;2022-11-03T07:02:01;26.31;;;14.95;;
54143;SDS011;40050;47.324;18.792;2022-11-03T07:04:11;24.92;;;14.56;;
54143;SDS011;40050;47.324;18.792;2022-11-03T07:08:40;22.40;;;15.40;;
54143;SDS011;40050;47.324;18.792;2022-11-03T07:10:07;25.38;;;14.64;;
54143;SDS011;40050;47.324;18.792;2022-11-03T07:12:18;23.17;;;14.45;;
54143;SDS011;40050;47.324;18.792;2022-11-03T07:14:27;24.75;;;14.25;;
54143;SDS011;40050;47.324;18.792;2022-11-03T07:16:28;23.45;;;13.96;;
54143;SDS011;40050;47.324;18.792;2022-11-03T07:18:26;23.34;;;13.86;;
54143;SDS011;40050;47.324;18.792;2022-11-03T07:20:28;22.65;;;12.24;;
54143;SDS011;40050;47.324;18.792;2022-11-03T07:22:30;21.36;;;12.80;;
54143;SDS011;40050;47.324;18.792;2022-11-03T07:24:44;22.43;;;12.63;;
54143;SDS011;40050;47.324;18.792;2022-11-03T07:26:44;20.04;;;12.81;;
54143;SDS011;40050;47.324;18.792;2022-11-03T07:28:45;18.13;;;12.25;;
54143;SDS011;40050;47.324;18.792;2022-11-03T07:30:48;18.64;;;10.95;;
54143;SDS011;40050;47.324;18.792;2022-11-03T07:32:53;17.30;;;10.31;;
54143;SDS011;40050;47.324;18.792;2022-11-03T07:34:56;19.07;;;10.88;;
54143;SDS011;40050;47.324;18.792;2022-11-03T07:36:55;17.18;;;9.63;;
54143;SDS011;40050;47.324;18.792;2022-11-03T07:38:58;16.34;;;9.76;;
54143;SDS011;40050;47.324;18.792;2022-11-03T07:40:58;15.99;;;9.47;;
54143;SDS011;40050;47.324;18.792;2022-11-03T07:43:35;17.30;;;9.38;;
54143;SDS011;40050;47.324;18.792;2022-11-03T07:45:08;14.33;;;8.91;;
54143;SDS011;40050;47.324;18.792;2022-11-03T07:47:05;20.98;;;10.08;;
54143;SDS011;40050;47.324;18.792;2022-11-03T07:49:33;18.76;;;10.59;;
54143;SDS011;40050;47.324;18.792;2022-11-03T07:51:38;20.05;;;11.07;;
54143;SDS011;40050;47.324;18.792;2022-11-03T07:53:23;20.70;;;11.08;;
54143;SDS011;40050;47.324;18.792;2022-11-03T07:55:20;21.21;;;11.67;;
54143;SDS011;40050;47.324;18.792;2022-11-03T07:57:28;20.75;;;11.67;;
54143;SDS011;40050;47.324;18.792;2022-11-03T07:59:45;20.89;;;11.58;;
54143;SDS011;40050;47.324;18.792;2022-11-03T08:01:59;18.16;;;10.71;;
54143;SDS011;40050;47.324;18.792;2022-11-03T08:04:20;23.34;;;12.26;;
54143;SDS011;40050;47.324;18.792;2022-11-03T08:06:11;25.01;;;13.20;;
54143;SDS011;40050;47.324;18.792;2022-11-03T08:08:12;29.59;;;14.85;;
54143;SDS011;40050;47.324;18.792;2022-11-03T08:10:13;25.78;;;13.87;;
54143;SDS011;40050;47.324;18.792;2022-11-03T08:12:14;27.28;;;14.15;;
54143;SDS011;40050;47.324;18.792;2022-11-03T08:14:15;30.53;;;14.71;;
54143;SDS011;40050;47.324;18.792;2022-11-03T08:16:16;30.97;;;14.50;;
54143;SDS011;40050;47.324;18.792;2022-11-03T08:18:16;28.76;;;14.88;;
54143;SDS011;40050;47.324;18.792;2022-11-03T08:20:17;32.15;;;15.65;;
54143;SDS011;40050;47.324;18.792;2022-11-03T08:22:18;32.77;;;15.44;;
54143;SDS011;40050;47.324;18.792;2022-11-03T08:24:19;29.98;;;15.24;;
54143;SDS011;40050;47.324;18.792;2022-11-03T08:26:20;33.60;;;15.91;;
54143;SDS011;40050;47.324;18.792;2022-11-03T08:28:21;38.31;;;16.65;;
54143;SDS011;40050;47.324;18.792;2022-11-03T08:30:24;37.44;;;17.61;;
54143;SDS011;40050;47.324;18.792;2022-11-03T08:32:25;41.52;;;17.96;;
54143;SDS011;40050;47.324;18.792;2022-11-03T08:34:25;37.21;;;16.97;;
54143;SDS011;40050;47.324;18.792;2022-11-03T08:36:26;35.21;;;17.74;;
54143;SDS011;40050;47.324;18.792;2022-11-03T08:38:27;36.74;;;17.45;;
54143;SDS011;40050;47.324;18.792;2022-11-03T08:40:28;37.07;;;17.55;;
54143;SDS011;40050;47.324;18.792;2022-11-03T08:42:29;33.05;;;16.78;;
54143;SDS011;40050;47.324;18.792;2022-11-03T08:44:29;36.95;;;17.37;;
54143;SDS011;40050;47.324;18.792;2022-11-03T08:46:30;38.82;;;18.53;;
54143;SDS011;40050;47.324;18.792;2022-11-03T08:48:31;35.20;;;17.57;;
54143;SDS011;40050;47.324;18.792;2022-11-03T08:50:32;35.84;;;17.22;;
54143;SDS011;40050;47.324;18.792;2022-11-03T08:52:32;38.19;;;18.77;;
54143;SDS011;40050;47.324;18.792;2022-11-03T08:54:33;39.05;;;18.00;;
54143;SDS011;40050;47.324;18.792;2022-11-03T08:56:34;37.79;;;17.90;;
54143;SDS011;40050;47.324;18.792;2022-11-03T08:58:35;37.65;;;17.81;;
54143;SDS011;40050;47.324;18.792;2022-11-03T09:00:37;33.74;;;16.86;;
54143;SDS011;40050;47.324;18.792;2022-11-03T09:02:37;35.70;;;17.18;;
54143;SDS011;40050;47.324;18.792;2022-11-03T09:04:38;39.75;;;18.52;;
54143;SDS011;40050;47.324;18.792;2022-11-03T09:06:39;34.52;;;18.03;;
54143;SDS011;40050;47.324;18.792;2022-11-03T09:08:40;37.99;;;17.46;;
54143;SDS011;40050;47.324;18.792;2022-11-03T09:10:41;39.60;;;18.53;;
54143;SDS011;40050;47.324;18.792;2022-11-03T09:12:42;39.93;;;19.39;;
54143;SDS011;40050;47.324;18.792;2022-11-03T09:14:43;40.02;;;18.91;;
54143;SDS011;40050;47.324;18.792;2022-11-03T09:16:44;38.87;;;19.02;;
54143;SDS011;40050;47.324;18.792;2022-11-03T09:18:45;42.31;;;18.45;;
54143;SDS011;40050;47.324;18.792;2022-11-03T09:20:46;39.58;;;18.64;;
54143;SDS011;40050;47.324;18.792;2022-11-03T09:22:47;36.50;;;18.93;;
54143;SDS011;40050;47.324;18.792;2022-11-03T09:24:47;40.45;;;18.73;;
54143;SDS011;40050;47.324;18.792;2022-11-03T09:26:48;40.07;;;19.59;;
54143;SDS011;40050;47.324;18.792;2022-11-03T09:28:49;42.04;;;20.28;;
54143;SDS011;40050;47.324;18.792;2022-11-03T09:30:50;38.25;;;19.11;;
54143;SDS011;40050;47.324;18.792;2022-11-03T09:32:51;39.18;;;19.41;;
54143;SDS011;40050;47.324;18.792;2022-11-03T09:34:52;40.49;;;19.06;;
54143;SDS011;40050;47.324;18.792;2022-11-03T09:36:52;40.82;;;19.37;;
54143;SDS011;40050;47.324;18.792;2022-11-03T09:38:55;43.08;;;19.06;;
54143;SDS011;40050;47.324;18.792;2022-11-03T09:41:02;37.32;;;19.06;;
54143;SDS011;40050;47.324;18.792;2022-11-03T09:42:58;38.62;;;18.40;;
54143;SDS011;40050;47.324;18.792;2022-11-03T09:44:58;36.99;;;18.41;;
54143;SDS011;40050;47.324;18.792;2022-11-03T09:47:02;41.76;;;18.88;;
54143;SDS011;40050;47.324;18.792;2022-11-03T09:49:03;40.86;;;18.22;;
54143;SDS011;40050;47.324;18.792;2022-11-03T09:51:04;40.61;;;18.90;;
54143;SDS011;40050;47.324;18.792;2022-11-03T09:53:10;37.54;;;18.03;;
54143;SDS011;40050;47.324;18.792;2022-11-03T09:55:16;38.48;;;18.14;;
54143;SDS011;40050;47.324;18.792;2022-11-03T09:57:11;37.49;;;18.34;;
54143;SDS011;40050;47.324;18.792;2022-11-03T09:59:19;34.54;;;17.31;;
54143;SDS011;40050;47.324;18.792;2022-11-03T10:01:13;34.93;;;17.76;;
54143;SDS011;40050;47.324;18.792;2022-11-03T10:03:17;36.54;;;17.69;;
54143;SDS011;40050;47.324;18.792;2022-11-03T10:05:25;35.86;;;17.71;;
54143;SDS011;40050;47.324;18.792;2022-11-03T10:07:20;34.92;;;17.70;;
54143;SDS011;40050;47.324;18.792;2022-11-03T10:09:20;38.93;;;18.06;;
54143;SDS011;40050;47.324;18.792;2022-11-03T10:11:23;38.32;;;19.10;;
54143;SDS011;40050;47.324;18.792;2022-11-03T10:13:36;38.19;;;18.52;;
54143;SDS011;40050;47.324;18.792;2022-11-03T10:15:27;36.23;;;17.93;;
54143;SDS011;40050;47.324;18.792;2022-11-03T10:17:29;38.73;;;19.00;;
54143;SDS011;40050;47.324;18.792;2022-11-03T10:19:31;41.15;;;18.80;;
54143;SDS011;40050;47.324;18.792;2022-11-03T10:21:47;38.98;;;18.71;;
54143;SDS011;40050;47.324;18.792;2022-11-03T10:24:00;42.49;;;19.96;;
54143;SDS011;40050;47.324;18.792;2022-11-03T10:26:07;44.41;;;19.66;;
54143;SDS011;40050;47.324;18.792;2022-11-03T10:28:21;41.30;;;19.95;;
54143;SDS011;40050;47.324;18.792;2022-11-03T10:32:27;40.42;;;18.93;;
54143;SDS011;40050;47.324;18.792;2022-11-03T10:34:31;41.73;;;19.43;;
54143;SDS011;40050;47.324;18.792;2022-11-03T10:36:23;36.78;;;19.11;;
54143;SDS011;40050;47.324;18.792;2022-11-03T10:38:31;40.71;;;18.91;;
54143;SDS011;40050;47.324;18.792;2022-11-03T10:40:35;43.35;;;20.00;;
54143;SDS011;40050;47.324;18.792;2022-11-03T10:42:33;40.73;;;19.69;;
54143;SDS011;40050;47.324;18.792;2022-11-03T10:44:54;42.32;;;20.46;;
54143;SDS011;40050;47.324;18.792;2022-11-03T10:47:09;43.42;;;20.33;;
54143;SDS011;40050;47.324;18.792;2022-11-03T10:49:03;44.78;;;20.14;;
54143;SDS011;40050;47.324;18.792;2022-11-03T10:51:06;44.46;;;20.32;;
54143;SDS011;40050;47.324;18.792;2022-11-03T10:53:02;41.27;;;19.26;;
54143;SDS011;40050;47.324;18.792;2022-11-03T10:55:04;42.72;;;19.36;;
54143;SDS011;40050;47.324;18.792;2022-11-03T10:57:06;41.18;;;19.64;;
54143;SDS011;40050;47.324;18.792;2022-11-03T10:59:07;46.10;;;19.82;;
54143;SDS011;40050;47.324;18.792;2022-11-03T11:01:13;41.41;;;20.48;;
54143;SDS011;40050;47.324;18.792;2022-11-03T11:03:19;43.74;;;20.50;;
54143;SDS011;40050;47.324;18.792;2022-11-03T11:05:23;41.68;;;20.89;;
54143;SDS011;40050;47.324;18.792;2022-11-03T11:07:32;39.49;;;20.48;;
54143;SDS011;40050;47.324;18.792;2022-11-03T11:09:30;39.54;;;19.34;;
54143;SDS011;40050;47.324;18.792;2022-11-03T11:11:46;37.83;;;19.63;;
54143;SDS011;40050;47.324;18.792;2022-11-03T11:20:35;43.58;;;20.19;;
54143;SDS011;40050;47.324;18.792;2022-11-03T11:22:43;42.43;;;20.48;;
54143;SDS011;40050;47.324;18.792;2022-11-03T11:26:59;48.86;;;21.58;;
54143;SDS011;40050;47.324;18.792;2022-11-03T11:31:29;44.95;;;21.54;;
54143;SDS011;40050;47.324;18.792;2022-11-03T11:33:24;45.41;;;20.89;;
54143;SDS011;40050;47.324;18.792;2022-11-03T11:37:36;38.76;;;19.05;;
54143;SDS011;40050;47.324;18.792;2022-11-03T11:39:54;38.69;;;18.76;;
54143;SDS011;40050;47.324;18.792;2022-11-03T11:42:25;37.40;;;19.06;;
54143;SDS011;40050;47.324;18.792;2022-11-03T11:46:46;40.58;;;20.03;;
54143;SDS011;40050;47.324;18.792;2022-11-03T11:49:00;43.19;;;20.33;;
54143;SDS011;40050;47.324;18.792;2022-11-03T11:50:55;43.06;;;20.52;;
54143;SDS011;40050;47.324;18.792;2022-11-03T11:52:59;45.67;;;21.19;;
54143;SDS011;40050;47.324;18.792;2022-11-03T11:54:56;45.64;;;20.96;;
54143;SDS011;40050;47.324;18.792;2022-11-03T11:56:57;41.70;;;20.16;;
54143;SDS011;40050;47.324;18.792;2022-11-03T11:59:14;42.65;;;21.12;;
54143;SDS011;40050;47.324;18.792;2022-11-03T12:01:30;41.86;;;20.26;;
54143;SDS011;40050;47.324;18.792;2022-11-03T12:03:37;44.02;;;21.21;;
54143;SDS011;40050;47.324;18.792;2022-11-03T12:05:31;43.90;;;20.23;;
54143;SDS011;40050;47.324;18.792;2022-11-03T12:07:32;46.00;;;21.39;;
54143;SDS011;40050;47.324;18.792;2022-11-03T12:09:48;45.14;;;21.60;;
54143;SDS011;40050;47.324;18.792;2022-11-03T12:12:01;46.28;;;21.47;;
54143;SDS011;40050;47.324;18.792;2022-11-03T12:14:20;49.52;;;21.65;;
54143;SDS011;40050;47.324;18.792;2022-11-03T12:16:34;44.93;;;21.57;;
54143;SDS011;40050;47.324;18.792;2022-11-03T12:18:45;44.99;;;22.16;;
54143;SDS011;40050;47.324;18.792;2022-11-03T12:21:08;42.38;;;20.91;;
54143;SDS011;40050;47.324;18.792;2022-11-03T12:23:30;42.82;;;20.32;;
54143;SDS011;40050;47.324;18.792;2022-11-03T12:25:34;42.17;;;21.19;;
54143;SDS011;40050;47.324;18.792;2022-11-03T12:29:27;43.60;;;21.85;;
54143;SDS011;40050;47.324;18.792;2022-11-03T12:31:32;44.05;;;21.74;;